createdAt,value
2018-01-31T01:52:20.812Z,1002.40
2018-01-31T01:53:11.358Z,1002.35
2018-01-31T01:54:11.369Z,1002.26
2018-01-31T01:55:11.382Z,1002.25
2018-01-31T01:56:11.401Z,1002.20
2018-01-31T01:57:11.410Z,1002.24
2018-01-31T01:58:11.430Z,1002.24
2018-01-31T01:59:11.436Z,1002.19
2018-01-31T02:00:11.448Z,1002.17
2018-01-31T02:01:11.461Z,1002.14
2018-01-31T02:02:11.475Z,1002.11
2018-01-31T02:03:11.487Z,1002.09
2018-01-31T02:04:11.503Z,1002.07
2018-01-31T02:05:11.519Z,1002.03
2018-01-31T02:06:11.529Z,1001.99
2018-01-31T02:07:11.542Z,1001.94
2018-01-31T02:08:11.554Z,1001.91
2018-01-31T02:09:11.574Z,1001.91
2018-01-31T02:10:11.580Z,1001.86
2018-01-31T02:11:11.593Z,1001.87
2018-01-31T02:12:11.609Z,1001.80
2018-01-31T02:13:11.622Z,1001.77
2018-01-31T02:14:11.633Z,1001.76
2018-01-31T02:15:11.653Z,1001.77
2018-01-31T02:16:11.660Z,1001.78
2018-01-31T02:17:11.674Z,1001.70
2018-01-31T02:18:11.688Z,1001.66
2018-01-31T02:19:11.700Z,1001.63
2018-01-31T02:20:11.717Z,1001.66
2018-01-31T02:21:11.729Z,1001.63
2018-01-31T02:22:11.739Z,1001.55
2018-01-31T02:23:11.753Z,1001.55
2018-01-31T02:24:11.766Z,1001.53
2018-01-31T02:25:11.782Z,1001.44
2018-01-31T02:26:11.796Z,1001.38
2018-01-31T02:27:11.811Z,1001.47
2018-01-31T02:28:11.822Z,1001.44
2018-01-31T02:29:11.835Z,1001.36
2018-01-31T02:30:11.852Z,1001.34
2018-01-31T02:31:11.864Z,1001.32
2018-01-31T02:32:11.876Z,1001.27
2018-01-31T02:33:11.890Z,1001.21
2018-01-31T02:34:11.900Z,1001.28
2018-01-31T02:35:11.913Z,1001.22
2018-01-31T02:36:11.929Z,1001.19
2018-01-31T02:37:11.940Z,1001.09
2018-01-31T02:38:11.958Z,1001.10
2018-01-31T02:39:11.967Z,1001.05
2018-01-31T02:40:11.984Z,1001.06
2018-01-31T02:41:12.000Z,1001.05
2018-01-31T02:42:12.010Z,1001.00
2018-01-31T02:43:12.026Z,1000.97
2018-01-31T02:44:12.037Z,1000.95
2018-01-31T02:45:12.049Z,1000.91
2018-01-31T02:46:12.064Z,1000.88
2018-01-31T02:47:12.076Z,1000.92
2018-01-31T02:48:12.090Z,1000.87
2018-01-31T02:49:12.105Z,1000.83
2018-01-31T02:50:12.119Z,1000.81
2018-01-31T02:51:12.131Z,1000.80
2018-01-31T02:52:12.146Z,1000.70
2018-01-31T02:53:12.159Z,1000.61
2018-01-31T02:54:12.177Z,1000.48
2018-01-31T02:55:12.188Z,1000.43
2018-01-31T02:56:12.201Z,1000.33
2018-01-31T02:57:12.213Z,1000.33
2018-01-31T02:58:12.232Z,1000.25
2018-01-31T02:59:12.242Z,1000.36
2018-01-31T03:00:12.256Z,1000.31
2018-01-31T03:01:12.273Z,1000.25
2018-01-31T03:02:12.286Z,1000.21
2018-01-31T03:03:12.296Z,1000.15
2018-01-31T03:04:12.311Z,1000.20
2018-01-31T03:05:12.327Z,1000.30
2018-01-31T03:06:12.340Z,1000.22
2018-01-31T03:07:12.351Z,1000.28
2018-01-31T03:08:12.368Z,1000.28
2018-01-31T03:09:12.379Z,1000.28
2018-01-31T03:10:12.393Z,1000.29
2018-01-31T03:11:12.409Z,1000.28
2018-01-31T03:12:12.430Z,1000.23
2018-01-31T03:13:12.436Z,1000.13
2018-01-31T03:14:12.450Z,1000.09
2018-01-31T03:15:12.462Z,1000.02
2018-01-31T03:16:12.477Z,1000.07
2018-01-31T03:17:12.491Z,1000.02
2018-01-31T03:18:12.507Z,1000.01
2018-01-31T03:19:12.517Z,1000.01
2018-01-31T03:20:12.531Z,999.98
2018-01-31T03:21:12.547Z,999.95
2018-01-31T03:22:12.558Z,999.89
2018-01-31T03:23:12.572Z,999.92
2018-01-31T03:24:12.587Z,999.88
2018-01-31T03:25:12.599Z,999.89
2018-01-31T03:26:12.620Z,999.89
2018-01-31T03:27:12.629Z,999.89
2018-01-31T03:28:12.641Z,999.86
2018-01-31T03:29:12.654Z,999.88
2018-01-31T03:30:12.673Z,999.89
2018-01-31T03:31:12.688Z,999.82
2018-01-31T03:32:12.698Z,999.86
2018-01-31T03:33:12.711Z,999.88
2018-01-31T03:34:12.724Z,999.86
2018-01-31T03:35:12.739Z,999.89
2018-01-31T03:36:12.752Z,999.80
2018-01-31T03:37:12.765Z,999.77
2018-01-31T03:38:12.778Z,999.79
2018-01-31T03:39:12.792Z,999.76
2018-01-31T03:40:12.806Z,999.72
2018-01-31T03:41:12.821Z,999.67
2018-01-31T03:42:12.838Z,999.68
2018-01-31T03:43:12.847Z,999.68
2018-01-31T03:44:12.864Z,999.67
2018-01-31T03:45:12.922Z,999.63
2018-01-31T03:46:12.891Z,999.59
2018-01-31T03:47:12.903Z,999.57
2018-01-31T03:48:12.916Z,999.52
2018-01-31T03:49:12.931Z,999.50
2018-01-31T03:50:12.945Z,999.45
2018-01-31T03:51:12.960Z,999.39
2018-01-31T03:52:12.971Z,999.41
2018-01-31T03:53:12.985Z,999.47
2018-01-31T03:54:13.003Z,999.49
2018-01-31T03:55:13.014Z,999.44
2018-01-31T03:56:13.029Z,999.41
2018-01-31T03:57:13.043Z,999.39
2018-01-31T03:58:13.054Z,999.33
2018-01-31T03:59:13.070Z,999.26
2018-01-31T04:00:13.084Z,999.26
2018-01-31T04:01:13.097Z,999.30
2018-01-31T04:02:13.112Z,999.23
2018-01-31T04:03:13.124Z,999.25
2018-01-31T04:04:13.140Z,999.24
2018-01-31T04:05:13.155Z,999.16
2018-01-31T04:06:13.168Z,999.13
2018-01-31T04:07:13.181Z,999.13
2018-01-31T04:08:13.196Z,999.06
2018-01-31T04:09:13.209Z,999.10
2018-01-31T04:10:13.242Z,999.10
2018-01-31T04:11:13.289Z,999.04
2018-01-31T04:12:13.250Z,999.02
2018-01-31T04:13:13.266Z,999.03
2018-01-31T04:14:13.278Z,999.01
2018-01-31T04:15:13.292Z,999.00
2018-01-31T04:16:13.308Z,998.96
2018-01-31T04:17:13.322Z,998.95
2018-01-31T04:18:13.337Z,998.91
2018-01-31T04:19:13.351Z,998.91
2018-01-31T04:20:13.364Z,998.83
2018-01-31T04:21:13.378Z,998.81
2018-01-31T04:22:13.396Z,998.75
2018-01-31T04:23:13.405Z,998.75
2018-01-31T04:24:13.419Z,998.73
2018-01-31T04:25:13.434Z,998.67
2018-01-31T04:26:13.448Z,998.63
2018-01-31T04:27:13.463Z,998.66
2018-01-31T04:28:13.477Z,998.56
2018-01-31T04:29:13.503Z,998.56
2018-01-31T04:30:13.505Z,998.57
2018-01-31T04:31:13.521Z,998.50
2018-01-31T04:32:13.533Z,998.48
2018-01-31T04:33:13.548Z,998.44
2018-01-31T04:34:13.562Z,998.42
2018-01-31T04:35:13.575Z,998.41
2018-01-31T04:36:13.591Z,998.32
2018-01-31T04:37:13.602Z,998.37
2018-01-31T04:38:13.637Z,998.35
2018-01-31T04:39:13.632Z,998.33
2018-01-31T04:40:13.646Z,998.34
2018-01-31T04:41:13.659Z,998.30
2018-01-31T04:42:13.676Z,998.26
2018-01-31T04:43:13.688Z,998.27
2018-01-31T04:44:13.703Z,998.26
2018-01-31T04:45:13.716Z,998.20
2018-01-31T04:46:13.734Z,998.20
2018-01-31T04:47:13.747Z,998.17
2018-01-31T04:48:13.764Z,998.18
2018-01-31T04:49:13.776Z,998.14
2018-01-31T04:50:13.789Z,998.11
2018-01-31T04:51:13.802Z,998.11
2018-01-31T04:52:13.816Z,998.09
2018-01-31T04:53:13.831Z,998.06
2018-01-31T04:54:13.846Z,998.07
2018-01-31T04:55:13.862Z,997.99
2018-01-31T04:56:13.876Z,998.00
2018-01-31T04:57:13.892Z,997.97
2018-01-31T04:58:13.903Z,997.94
2018-01-31T04:59:13.918Z,997.91
2018-01-31T05:00:13.930Z,997.87
2018-01-31T05:01:13.947Z,997.80
2018-01-31T05:02:13.960Z,997.80
2018-01-31T05:03:13.974Z,997.75
2018-01-31T05:04:13.989Z,997.69
2018-01-31T05:05:14.006Z,997.71
2018-01-31T05:06:14.018Z,997.68
2018-01-31T05:07:14.030Z,997.63
2018-01-31T05:08:14.045Z,997.66
2018-01-31T05:09:14.060Z,997.62
2018-01-31T05:10:14.076Z,997.58
2018-01-31T05:11:14.086Z,997.56
2018-01-31T05:12:14.114Z,997.56
2018-01-31T05:13:14.117Z,997.58
2018-01-31T05:14:14.132Z,997.55
2018-01-31T05:15:14.144Z,997.52
2018-01-31T05:16:14.156Z,997.55
2018-01-31T05:17:14.177Z,997.47
2018-01-31T05:18:14.190Z,997.42
2018-01-31T05:19:14.201Z,997.47
2018-01-31T05:20:14.215Z,997.49
2018-01-31T05:21:14.229Z,997.47
2018-01-31T05:22:14.247Z,997.43
2018-01-31T05:23:14.261Z,997.39
2018-01-31T05:24:14.271Z,997.39
2018-01-31T05:25:14.287Z,997.32
2018-01-31T05:26:14.299Z,997.30
2018-01-31T05:27:14.319Z,997.31
2018-01-31T05:28:14.327Z,997.25
2018-01-31T05:29:14.342Z,997.27
2018-01-31T05:30:14.361Z,997.23
2018-01-31T05:31:14.377Z,997.18
2018-01-31T05:32:14.388Z,997.15
2018-01-31T05:33:14.403Z,997.13
2018-01-31T05:34:14.416Z,997.12
2018-01-31T05:35:14.432Z,997.16
2018-01-31T05:36:14.446Z,997.10
2018-01-31T05:37:14.458Z,997.07
2018-01-31T05:38:14.472Z,997.05
2018-01-31T05:39:14.486Z,997.03
2018-01-31T05:40:14.501Z,996.96
2018-01-31T05:41:14.515Z,996.97
2018-01-31T05:42:14.532Z,996.93
2018-01-31T05:43:14.543Z,996.90
2018-01-31T05:44:14.559Z,996.89
2018-01-31T05:45:14.573Z,996.92
2018-01-31T05:46:14.590Z,996.86
2018-01-31T05:47:14.604Z,996.87
2018-01-31T05:48:14.618Z,996.84
2018-01-31T05:49:14.630Z,996.78
2018-01-31T05:50:14.651Z,996.79
2018-01-31T05:51:14.662Z,996.81
2018-01-31T05:52:14.673Z,996.74
2018-01-31T05:53:14.688Z,996.79
2018-01-31T05:54:14.708Z,996.73
2018-01-31T05:55:14.714Z,996.75
2018-01-31T05:56:14.733Z,996.71
2018-01-31T05:57:14.760Z,996.71
2018-01-31T05:58:14.761Z,996.70
2018-01-31T05:59:14.776Z,996.69
2018-01-31T06:00:14.792Z,996.69
2018-01-31T06:01:14.802Z,996.64
2018-01-31T06:02:14.820Z,996.64
2018-01-31T06:03:14.832Z,996.60
2018-01-31T06:04:14.845Z,996.60
2018-01-31T06:05:14.862Z,996.52
2018-01-31T06:06:14.878Z,996.53
2018-01-31T06:07:14.890Z,996.51
2018-01-31T06:08:14.905Z,996.51
2018-01-31T06:09:14.920Z,996.56
2018-01-31T06:10:14.936Z,996.41
2018-01-31T06:11:14.949Z,996.43
2018-01-31T06:12:14.966Z,996.41
2018-01-31T06:13:14.981Z,996.37
2018-01-31T06:14:14.995Z,996.39
2018-01-31T06:15:15.007Z,996.39
2018-01-31T06:16:15.021Z,996.33
2018-01-31T06:17:15.035Z,996.34
2018-01-31T06:18:15.049Z,996.34
2018-01-31T06:19:15.068Z,996.31
2018-01-31T06:20:15.080Z,996.28
2018-01-31T06:21:15.094Z,996.24
2018-01-31T06:22:15.111Z,996.27
2018-01-31T06:23:15.121Z,996.16
2018-01-31T06:24:15.138Z,996.15
2018-01-31T06:25:15.155Z,996.13
2018-01-31T06:26:15.171Z,996.08
2018-01-31T06:27:15.182Z,996.06
2018-01-31T06:28:15.199Z,996.03
2018-01-31T06:29:15.217Z,996.05
2018-01-31T06:30:15.227Z,995.99
2018-01-31T06:31:15.241Z,995.99
2018-01-31T06:32:15.259Z,995.98
2018-01-31T06:33:15.274Z,995.98
2018-01-31T06:34:15.287Z,995.98
2018-01-31T06:35:15.303Z,995.91
2018-01-31T06:36:15.315Z,995.88
2018-01-31T06:37:15.332Z,995.82
2018-01-31T06:38:15.355Z,995.85
2018-01-31T06:39:15.358Z,995.79
2018-01-31T06:40:15.373Z,995.78
2018-01-31T06:41:15.388Z,995.78
2018-01-31T06:42:15.403Z,995.75
2018-01-31T06:43:15.420Z,995.78
2018-01-31T06:44:15.433Z,995.74
2018-01-31T06:45:15.453Z,995.67
2018-01-31T06:46:15.463Z,995.66
2018-01-31T06:47:15.477Z,995.64
2018-01-31T06:48:15.491Z,995.60
2018-01-31T06:49:15.507Z,995.65
2018-01-31T06:50:15.522Z,995.62
2018-01-31T06:51:15.535Z,995.57
2018-01-31T06:52:15.551Z,995.60
2018-01-31T06:53:15.567Z,995.53
2018-01-31T06:54:15.578Z,995.55
2018-01-31T06:55:15.597Z,995.47
2018-01-31T06:56:15.612Z,995.43
2018-01-31T06:57:15.624Z,995.49
2018-01-31T06:58:15.638Z,995.48
2018-01-31T06:59:15.654Z,995.49
2018-01-31T07:00:15.669Z,995.43
2018-01-31T07:01:15.683Z,995.49
2018-01-31T07:02:15.698Z,995.47
2018-01-31T07:03:15.714Z,995.49
2018-01-31T07:04:15.734Z,995.45
2018-01-31T07:05:15.747Z,995.40
2018-01-31T07:06:15.758Z,995.34
2018-01-31T07:07:15.771Z,995.37
2018-01-31T07:08:15.787Z,995.19
2018-01-31T07:09:15.803Z,995.29
2018-01-31T07:10:15.816Z,995.25
2018-01-31T07:11:15.830Z,995.21
2018-01-31T07:12:15.847Z,995.20
2018-01-31T07:13:15.860Z,995.19
2018-01-31T07:14:15.876Z,995.15
2018-01-31T07:15:15.888Z,995.15
2018-01-31T07:16:15.904Z,995.15
2018-01-31T07:17:15.919Z,995.07
2018-01-31T07:18:15.935Z,995.06
2018-01-31T07:19:15.950Z,995.06
2018-01-31T07:20:15.970Z,995.05
2018-01-31T07:21:16.001Z,995.02
2018-01-31T07:22:15.994Z,994.98
2018-01-31T07:23:16.008Z,995.01
2018-01-31T07:24:16.021Z,994.86
2018-01-31T07:25:16.040Z,994.94
2018-01-31T07:26:16.053Z,994.91
2018-01-31T07:27:16.068Z,994.93
2018-01-31T07:28:16.084Z,994.88
2018-01-31T07:29:16.098Z,994.87
2018-01-31T07:30:16.111Z,994.85
2018-01-31T07:31:16.124Z,994.88
2018-01-31T07:32:16.155Z,994.88
2018-01-31T07:33:16.159Z,994.81
2018-01-31T07:34:16.173Z,994.79
2018-01-31T07:35:16.195Z,994.82
2018-01-31T07:36:16.201Z,994.79
2018-01-31T07:37:16.216Z,994.74
2018-01-31T07:38:16.278Z,994.78
2018-01-31T07:39:16.254Z,994.70
2018-01-31T07:40:16.261Z,994.67
2018-01-31T07:41:16.276Z,994.59
2018-01-31T07:42:16.293Z,994.65
2018-01-31T07:43:16.305Z,994.62
2018-01-31T07:44:16.322Z,994.61
2018-01-31T07:45:16.337Z,994.59
2018-01-31T07:46:16.351Z,994.51
2018-01-31T07:47:16.365Z,994.52
2018-01-31T07:48:16.381Z,994.52
2018-01-31T07:49:16.395Z,994.45
2018-01-31T07:50:16.418Z,994.49
2018-01-31T07:51:16.425Z,994.47
2018-01-31T07:52:16.448Z,994.46
2018-01-31T07:53:16.456Z,994.48
2018-01-31T07:54:16.471Z,994.42
2018-01-31T07:55:16.484Z,994.42
2018-01-31T07:56:16.503Z,994.40
2018-01-31T07:57:16.517Z,994.39
2018-01-31T07:58:16.533Z,994.43
2018-01-31T07:59:16.545Z,994.34
2018-01-31T08:00:16.558Z,994.30
2018-01-31T08:01:16.583Z,994.32
2018-01-31T08:02:16.592Z,994.31
2018-01-31T08:03:16.606Z,994.27
2018-01-31T08:04:16.620Z,994.26
2018-01-31T08:05:16.640Z,994.22
2018-01-31T08:06:16.651Z,994.22
2018-01-31T08:07:16.673Z,994.23
2018-01-31T08:08:16.682Z,994.18
2018-01-31T08:09:16.698Z,994.17
2018-01-31T08:10:16.713Z,994.20
2018-01-31T08:11:16.727Z,994.19
2018-01-31T08:12:16.742Z,994.20
2018-01-31T08:13:16.759Z,994.17
2018-01-31T08:14:16.778Z,994.18
2018-01-31T08:15:16.788Z,994.18
2018-01-31T08:16:16.808Z,994.17
2018-01-31T08:17:16.821Z,994.17
2018-01-31T08:18:16.834Z,994.18
2018-01-31T08:19:16.850Z,994.12
2018-01-31T08:20:16.865Z,994.18
2018-01-31T08:21:16.881Z,994.14
2018-01-31T08:22:16.897Z,994.11
2018-01-31T08:23:16.910Z,994.16
2018-01-31T08:24:16.924Z,994.08
2018-01-31T08:25:16.942Z,994.11
2018-01-31T08:26:16.961Z,994.06
2018-01-31T08:27:16.973Z,994.05
2018-01-31T08:28:16.988Z,994.04
2018-01-31T08:29:17.003Z,994.07
2018-01-31T08:30:17.019Z,994.03
2018-01-31T08:31:17.033Z,993.94
2018-01-31T08:32:17.052Z,993.89
2018-01-31T08:33:17.065Z,993.96
2018-01-31T08:34:17.080Z,993.96
2018-01-31T08:35:17.097Z,993.86
2018-01-31T08:36:17.111Z,993.89
2018-01-31T08:37:17.126Z,993.86
2018-01-31T08:38:17.142Z,993.86
2018-01-31T08:39:17.156Z,993.82
2018-01-31T08:40:17.175Z,993.82
2018-01-31T08:41:17.190Z,993.78
2018-01-31T08:42:17.206Z,993.75
2018-01-31T08:43:17.223Z,993.76
2018-01-31T08:44:17.238Z,993.72
2018-01-31T08:45:17.254Z,993.66
2018-01-31T08:46:17.269Z,993.74
2018-01-31T08:47:17.280Z,993.63
2018-01-31T08:48:17.309Z,993.66
2018-01-31T08:49:17.312Z,993.66
2018-01-31T08:50:17.331Z,993.65
2018-01-31T08:51:17.343Z,993.61
2018-01-31T08:52:17.362Z,993.55
2018-01-31T08:53:17.376Z,993.58
2018-01-31T08:54:17.396Z,993.54
2018-01-31T08:55:17.407Z,993.52
2018-01-31T08:56:17.424Z,993.47
2018-01-31T08:57:17.438Z,993.55
2018-01-31T08:58:17.454Z,993.49
2018-01-31T08:59:17.474Z,993.51
2018-01-31T09:00:17.487Z,993.47
2018-01-31T09:01:17.502Z,993.56
2018-01-31T09:02:17.521Z,993.65
2018-01-31T09:03:17.533Z,993.55
2018-01-31T09:04:17.550Z,993.62
2018-01-31T09:05:17.568Z,993.55
2018-01-31T09:06:17.580Z,993.52
2018-01-31T09:07:17.601Z,993.51
2018-01-31T09:08:17.613Z,993.49
2018-01-31T09:09:17.628Z,993.42
2018-01-31T09:10:17.646Z,993.46
2018-01-31T09:11:17.663Z,993.39
2018-01-31T09:12:17.678Z,993.37
2018-01-31T09:13:17.700Z,993.34
2018-01-31T09:14:17.711Z,993.31
2018-01-31T09:15:17.727Z,993.25
2018-01-31T09:16:17.744Z,993.15
2018-01-31T09:17:17.758Z,993.18
2018-01-31T09:18:17.777Z,993.18
2018-01-31T09:19:17.793Z,993.21
2018-01-31T09:20:17.806Z,993.18
2018-01-31T09:21:17.824Z,993.20
2018-01-31T09:22:17.839Z,993.11
2018-01-31T09:23:17.854Z,993.09
2018-01-31T09:24:17.871Z,993.04
2018-01-31T09:25:17.887Z,993.03
2018-01-31T09:26:17.905Z,993.07
2018-01-31T09:27:17.919Z,993.09
2018-01-31T09:28:17.935Z,993.09
2018-01-31T09:29:17.951Z,993.05
2018-01-31T09:30:18.030Z,993.09
2018-01-31T09:31:17.984Z,993.05
2018-01-31T09:32:17.998Z,993.01
2018-01-31T09:33:18.018Z,993.03
2018-01-31T09:34:18.033Z,992.97
2018-01-31T09:35:18.051Z,993.05
2018-01-31T09:36:18.066Z,992.97
2018-01-31T09:37:18.088Z,992.96
2018-01-31T09:38:18.101Z,992.96
2018-01-31T09:39:18.114Z,992.94
2018-01-31T09:40:18.129Z,992.93
2018-01-31T09:41:18.147Z,992.91
2018-01-31T09:42:18.165Z,992.83
2018-01-31T09:43:18.180Z,992.90
2018-01-31T09:44:18.198Z,992.91
2018-01-31T09:45:18.213Z,992.85
2018-01-31T09:46:18.233Z,992.80
2018-01-31T09:47:18.245Z,992.77
2018-01-31T09:48:18.262Z,992.76
2018-01-31T09:49:18.278Z,992.77
2018-01-31T09:50:18.293Z,992.75
2018-01-31T09:51:18.309Z,992.76
2018-01-31T09:52:18.327Z,992.71
2018-01-31T09:53:18.498Z,992.69
2018-01-31T09:54:18.358Z,992.64
2018-01-31T09:55:18.375Z,992.66
2018-01-31T09:56:18.391Z,992.66
2018-01-31T09:57:18.411Z,992.53
2018-01-31T09:58:18.427Z,992.53
2018-01-31T09:59:18.444Z,992.49
2018-01-31T10:00:18.456Z,992.47
2018-01-31T10:01:18.471Z,992.46
2018-01-31T10:02:18.492Z,992.46
2018-01-31T10:03:18.506Z,992.45
2018-01-31T10:04:18.522Z,992.47
2018-01-31T10:05:18.540Z,992.46
2018-01-31T10:06:18.553Z,992.44
2018-01-31T10:07:18.569Z,992.45
2018-01-31T10:08:18.588Z,992.43
2018-01-31T10:09:18.603Z,992.48
2018-01-31T10:10:18.626Z,992.45
2018-01-31T10:11:18.684Z,992.44
2018-01-31T10:12:18.655Z,992.39
2018-01-31T10:13:18.673Z,992.38
2018-01-31T10:14:18.687Z,992.39
2018-01-31T10:15:18.702Z,992.39
2018-01-31T10:16:18.719Z,992.32
2018-01-31T10:17:18.738Z,992.34
2018-01-31T10:18:18.751Z,992.29
2018-01-31T10:19:18.769Z,992.29
2018-01-31T10:20:18.786Z,992.22
2018-01-31T10:21:18.801Z,992.23
2018-01-31T10:22:18.818Z,992.17
2018-01-31T10:23:18.838Z,992.15
2018-01-31T10:24:18.849Z,992.08
2018-01-31T10:25:18.866Z,992.11
2018-01-31T10:26:18.883Z,992.14
2018-01-31T10:27:18.900Z,992.05
2018-01-31T10:28:18.915Z,992.03
2018-01-31T10:29:18.934Z,992.00
2018-01-31T10:30:18.950Z,992.04
2018-01-31T10:31:18.964Z,992.01
2018-01-31T10:32:18.981Z,991.93
2018-01-31T10:33:19.002Z,991.90
2018-01-31T10:34:19.015Z,991.90
2018-01-31T10:35:19.031Z,991.91
2018-01-31T10:36:19.051Z,991.83
2018-01-31T10:37:19.064Z,991.82
2018-01-31T10:38:19.080Z,991.77
2018-01-31T10:39:19.101Z,991.78
2018-01-31T10:40:19.123Z,991.75
2018-01-31T10:41:19.130Z,991.74
2018-01-31T10:42:19.147Z,991.71
2018-01-31T10:43:19.164Z,991.68
2018-01-31T10:44:19.178Z,991.66
2018-01-31T10:45:19.195Z,991.61
2018-01-31T10:46:19.212Z,991.58
2018-01-31T10:47:19.228Z,991.52
2018-01-31T10:48:19.246Z,991.56
2018-01-31T10:49:19.269Z,991.56
2018-01-31T10:50:19.279Z,991.59
2018-01-31T10:51:19.294Z,991.54
2018-01-31T10:52:19.314Z,991.57
2018-01-31T10:53:19.327Z,991.55
2018-01-31T10:57:28.864Z,991.46
2018-01-31T10:58:19.409Z,991.41
2018-01-31T10:59:19.429Z,991.45
2018-01-31T11:00:19.440Z,991.44
2018-01-31T11:01:19.461Z,991.41
2018-01-31T11:02:19.477Z,991.39
2018-01-31T11:03:19.492Z,991.37
2018-01-31T11:04:19.509Z,991.35
2018-01-31T11:05:19.527Z,991.31
2018-01-31T11:06:19.545Z,991.30
2018-01-31T11:07:19.563Z,991.27
2018-01-31T11:08:19.574Z,991.24
2018-01-31T11:09:19.596Z,991.23
2018-01-31T11:10:19.610Z,991.16
2018-01-31T11:11:19.626Z,991.16
2018-01-31T11:12:19.644Z,991.08
2018-01-31T11:13:19.664Z,991.09
2018-01-31T11:14:19.682Z,991.04
2018-01-31T11:15:19.695Z,990.99
2018-01-31T11:16:19.715Z,990.95
2018-01-31T11:17:19.737Z,990.90
2018-01-31T11:18:19.745Z,990.96
2018-01-31T11:19:19.763Z,990.91
2018-01-31T11:20:19.780Z,990.84
2018-01-31T11:21:19.795Z,990.75
2018-01-31T11:22:19.813Z,990.83
2018-01-31T11:23:19.838Z,990.78
2018-01-31T11:24:19.847Z,990.77
2018-01-31T11:25:19.865Z,990.72
2018-01-31T11:26:19.881Z,990.67
2018-01-31T11:27:19.902Z,990.69
2018-01-31T11:28:19.913Z,990.72
2018-01-31T11:29:19.933Z,990.73
2018-01-31T11:30:19.951Z,990.60
2018-01-31T11:31:19.969Z,990.55
2018-01-31T11:32:19.984Z,990.58
2018-01-31T11:33:20.010Z,990.54
2018-01-31T11:34:20.022Z,990.53
2018-01-31T11:35:20.038Z,990.54
2018-01-31T11:36:20.056Z,990.46
2018-01-31T11:37:20.070Z,990.45
2018-01-31T11:38:20.088Z,990.46
2018-01-31T11:39:20.107Z,990.41
2018-01-31T11:40:20.124Z,990.40
2018-01-31T11:41:20.139Z,990.36
2018-01-31T11:42:20.157Z,990.36
2018-01-31T11:43:20.173Z,990.40
2018-01-31T11:44:20.191Z,990.39
2018-01-31T11:45:20.207Z,990.32
2018-01-31T11:46:20.231Z,990.34
2018-01-31T11:47:20.243Z,990.33
2018-01-31T11:48:20.259Z,990.28
2018-01-31T11:49:20.275Z,990.20
2018-01-31T11:50:20.292Z,990.20
2018-01-31T11:51:20.314Z,990.18
2018-01-31T11:52:20.327Z,990.14
2018-01-31T11:53:20.346Z,990.11
2018-01-31T11:54:20.370Z,990.03
2018-01-31T11:55:20.390Z,990.06
2018-01-31T11:56:20.399Z,989.96
2018-01-31T11:57:20.415Z,990.02
2018-01-31T11:58:20.435Z,989.99
2018-01-31T11:59:20.446Z,989.97
2018-01-31T12:00:20.466Z,989.93
2018-01-31T12:01:20.484Z,989.95
2018-01-31T12:02:20.501Z,990.00
2018-01-31T12:03:20.517Z,989.91
2018-01-31T12:04:20.531Z,989.88
2018-01-31T12:05:20.555Z,989.86
2018-01-31T12:06:20.572Z,989.82
2018-01-31T12:07:20.586Z,989.80
2018-01-31T12:08:20.601Z,989.75
2018-01-31T12:09:20.639Z,989.76
2018-01-31T12:10:20.638Z,989.75
2018-01-31T12:11:20.656Z,989.76
2018-01-31T12:12:20.670Z,989.70
2018-01-31T12:13:20.688Z,989.60
2018-01-31T12:14:20.706Z,989.64
2018-01-31T12:15:20.719Z,989.66
2018-01-31T12:16:20.740Z,989.57
2018-01-31T12:17:20.764Z,989.54
2018-01-31T12:18:20.773Z,989.53
2018-01-31T12:19:20.789Z,989.41
2018-01-31T12:20:20.809Z,989.44
2018-01-31T12:21:20.825Z,989.45
2018-01-31T12:22:20.839Z,989.45
2018-01-31T12:23:20.858Z,989.36
2018-01-31T12:24:20.873Z,989.40
2018-01-31T12:25:20.891Z,989.41
2018-01-31T12:26:20.910Z,989.29
2018-01-31T12:27:21.008Z,989.20
2018-01-31T12:28:20.941Z,989.21
2018-01-31T12:29:20.973Z,989.17
2018-01-31T12:30:20.976Z,989.14
2018-01-31T12:31:20.995Z,989.11
2018-01-31T12:32:21.007Z,989.10
2018-01-31T12:33:21.025Z,989.08
2018-01-31T12:34:21.042Z,989.15
2018-01-31T12:35:21.058Z,989.03
2018-01-31T12:36:21.076Z,989.04
2018-01-31T12:37:21.093Z,988.99
2018-01-31T12:38:21.110Z,988.96
2018-01-31T12:39:21.129Z,988.95
2018-01-31T12:40:21.144Z,989.00
2018-01-31T12:41:21.161Z,988.91
2018-01-31T12:42:21.175Z,988.85
2018-01-31T12:43:21.191Z,988.83
2018-01-31T12:44:21.210Z,988.82
2018-01-31T12:45:21.227Z,988.76
2018-01-31T12:46:21.247Z,988.79
2018-01-31T12:47:21.257Z,988.72
2018-01-31T12:48:21.276Z,988.66
2018-01-31T12:49:21.296Z,988.66
2018-01-31T12:50:21.311Z,988.64
2018-01-31T12:51:21.326Z,988.64
2018-01-31T12:52:21.344Z,988.61
2018-01-31T12:53:21.361Z,988.62
2018-01-31T12:54:21.378Z,988.59
2018-01-31T12:55:21.391Z,988.61
2018-01-31T12:56:21.411Z,988.63
2018-01-31T12:57:21.427Z,988.55
2018-01-31T12:58:21.445Z,988.55
2018-01-31T12:59:21.458Z,988.45
2018-01-31T13:00:21.477Z,988.49
2018-01-31T13:01:21.491Z,988.50
2018-01-31T13:02:21.510Z,988.40
2018-01-31T13:03:21.524Z,988.42
2018-01-31T13:04:21.546Z,988.39
2018-01-31T13:05:21.562Z,988.36
2018-01-31T13:06:21.584Z,988.38
2018-01-31T13:07:21.597Z,988.35
2018-01-31T13:08:21.610Z,988.40
2018-01-31T13:09:21.626Z,988.31
2018-01-31T13:10:21.647Z,988.29
2018-01-31T13:11:21.658Z,988.32
2018-01-31T13:12:21.676Z,988.31
2018-01-31T13:13:21.691Z,988.27
2018-01-31T13:14:21.710Z,988.24
2018-01-31T13:15:21.726Z,988.24
2018-01-31T13:16:21.743Z,988.22
2018-01-31T13:17:21.756Z,988.22
2018-01-31T13:18:21.781Z,988.13
2018-01-31T13:19:21.790Z,988.28
2018-01-31T13:20:21.811Z,988.22
2018-01-31T13:21:21.824Z,988.11
2018-01-31T13:22:21.840Z,988.15
2018-01-31T13:23:21.987Z,988.19
2018-01-31T13:24:21.874Z,988.23
2018-01-31T13:25:21.888Z,988.05
2018-01-31T13:26:21.909Z,988.12
2018-01-31T13:27:21.923Z,988.17
2018-01-31T13:28:21.937Z,988.11
2018-01-31T13:29:21.957Z,988.17
2018-01-31T13:30:21.972Z,988.19
2018-01-31T13:31:21.985Z,988.15
2018-01-31T13:32:22.003Z,988.09
2018-01-31T13:33:22.019Z,988.16
2018-01-31T13:34:22.045Z,988.23
2018-01-31T13:35:22.052Z,988.24
2018-01-31T13:36:22.070Z,988.14
2018-01-31T13:37:22.083Z,988.11
2018-01-31T13:38:22.101Z,988.11
2018-01-31T13:39:22.117Z,988.07
2018-01-31T13:40:22.134Z,988.06
2018-01-31T13:41:22.148Z,988.09
2018-01-31T13:42:22.187Z,988.05
2018-01-31T13:43:22.182Z,988.09
2018-01-31T13:44:22.197Z,987.95
2018-01-31T13:45:22.214Z,988.01
2018-01-31T13:46:22.233Z,987.98
2018-01-31T13:47:22.247Z,987.96
2018-01-31T13:48:22.262Z,987.93
2018-01-31T13:49:22.280Z,987.79
2018-01-31T13:50:22.298Z,987.84
2018-01-31T13:51:22.314Z,987.83
2018-01-31T13:52:22.326Z,987.78
2018-01-31T13:53:22.346Z,987.68
2018-01-31T13:54:22.358Z,987.71
2018-01-31T13:55:22.375Z,987.72
2018-01-31T13:56:22.391Z,987.73
2018-01-31T13:57:22.410Z,987.66
2018-01-31T13:58:22.427Z,987.58
2018-01-31T13:59:22.442Z,987.59
2018-01-31T14:00:22.456Z,987.52
2018-01-31T14:01:22.473Z,987.50
2018-01-31T14:02:22.494Z,987.44
2018-01-31T14:03:22.502Z,987.49
2018-01-31T14:04:22.531Z,987.46
2018-01-31T14:05:22.538Z,987.40
2018-01-31T14:06:22.554Z,987.39
2018-01-31T14:07:22.567Z,987.39
2018-01-31T14:08:22.589Z,987.38
2018-01-31T14:09:22.603Z,987.37
2018-01-31T14:10:22.619Z,987.33
2018-01-31T14:11:22.644Z,987.33
2018-01-31T14:12:22.651Z,987.27
2018-01-31T14:13:22.667Z,987.29
2018-01-31T14:14:22.685Z,987.25
2018-01-31T14:15:22.699Z,987.23
2018-01-31T14:16:22.757Z,987.12
2018-01-31T14:17:22.736Z,987.14
2018-01-31T14:18:22.748Z,987.13
2018-01-31T14:19:22.766Z,987.10
2018-01-31T14:20:22.783Z,987.10